createdAt,value
2023-04-09T00:00:18.776Z,30.9172
2023-04-09T00:01:22.935Z,30.9488
2023-04-09T00:02:26.905Z,30.9082
2023-04-09T00:03:30.813Z,30.8922
2023-04-09T00:04:34.765Z,30.8973
2023-04-09T00:05:38.627Z,30.8810
2023-04-09T00:06:42.535Z,30.9151
2023-04-09T00:07:46.425Z,30.9498
2023-04-09T00:08:50.813Z,30.9606
2023-04-09T00:09:54.775Z,30.9344
2023-04-09T00:10:58.914Z,30.9114
2023-04-09T00:12:02.899Z,30.9313
2023-04-09T00:13:06.723Z,30.9175
2023-04-09T00:14:10.627Z,30.9624
2023-04-09T00:15:23.996Z,30.9656
2023-04-09T00:16:19.054Z,31.0032
2023-04-09T00:17:22.958Z,30.9973
2023-04-09T00:18:26.836Z,30.9798
2023-04-09T00:19:30.718Z,30.9416
2023-04-09T00:20:34.617Z,30.9354
2023-04-09T00:21:38.850Z,30.9472
2023-04-09T00:22:42.746Z,30.9536
2023-04-09T00:23:42.942Z,30.9748
2023-04-09T00:24:46.848Z,30.9658
2023-04-09T00:25:50.738Z,30.9402
2023-04-09T00:26:54.639Z,30.9713
2023-04-09T00:27:58.515Z,30.9705
2023-04-09T00:29:02.418Z,30.9608
2023-04-09T00:30:06.308Z,30.9663
2023-04-09T00:31:10.225Z,30.9551
2023-04-09T00:32:14.084Z,30.9752
2023-04-09T00:33:17.990Z,31.0012
2023-04-09T00:34:21.880Z,30.9634
2023-04-09T00:35:25.802Z,30.9315
2023-04-09T00:36:29.900Z,30.9130
2023-04-09T00:37:33.809Z,30.9606
2023-04-09T00:38:37.709Z,31.0013
2023-04-09T00:39:41.668Z,30.9669
2023-04-09T00:40:45.504Z,30.9564
2023-04-09T00:41:49.410Z,30.9603
2023-04-09T00:42:53.297Z,30.9986
2023-04-09T00:43:57.233Z,31.0075
2023-04-09T00:45:01.131Z,30.9966
2023-04-09T00:46:05.046Z,31.0205
2023-04-09T00:47:08.953Z,31.0209
2023-04-09T00:48:12.824Z,30.9909
2023-04-09T00:49:16.728Z,31.0218
2023-04-09T00:50:20.636Z,31.0226
2023-04-09T00:51:24.543Z,30.9998
2023-04-09T00:52:28.414Z,31.0070
2023-04-09T00:53:32.323Z,31.0368
2023-04-09T00:54:36.234Z,31.0006
2023-04-09T00:55:40.141Z,30.9862
2023-04-09T00:56:44.010Z,31.0514
2023-04-09T00:57:47.935Z,31.0622
2023-04-09T00:58:52.377Z,31.0427
2023-04-09T00:59:56.443Z,31.0172
2023-04-09T01:01:00.352Z,30.9701
2023-04-09T01:02:04.276Z,31.0101
2023-04-09T01:03:08.289Z,31.0435
2023-04-09T01:04:12.211Z,31.0557
2023-04-09T01:05:16.112Z,31.0688
2023-04-09T01:06:20.176Z,31.0493
2023-04-09T01:07:24.063Z,31.0495
2023-04-09T01:08:27.965Z,31.0506
2023-04-09T01:09:31.847Z,31.0459
2023-04-09T01:10:35.762Z,31.0425
2023-04-09T01:11:39.642Z,31.0651
2023-04-09T01:12:43.542Z,31.0429
2023-04-09T01:13:47.760Z,31.0776
2023-04-09T01:14:51.659Z,31.0632
2023-04-09T01:15:55.642Z,31.0603
2023-04-09T01:16:59.542Z,31.0635
2023-04-09T01:18:03.489Z,31.0458
2023-04-09T01:19:07.343Z,31.0373
2023-04-09T01:20:11.229Z,31.0107
2023-04-09T01:21:15.355Z,30.9944
2023-04-09T01:22:19.235Z,31.0340
2023-04-09T01:23:23.138Z,31.0393
2023-04-09T01:24:27.249Z,31.0436
2023-04-09T01:25:31.150Z,31.0500
2023-04-09T01:26:35.058Z,31.0205
2023-04-09T01:27:38.968Z,31.0040
2023-04-09T01:28:42.868Z,31.0098
2023-04-09T01:29:46.760Z,31.0042
2023-04-09T01:30:50.717Z,30.9808
2023-04-09T01:31:54.833Z,30.9669
2023-04-09T01:32:58.805Z,30.9447
2023-04-09T01:34:02.873Z,30.9553
2023-04-09T01:35:06.778Z,30.9942
2023-04-09T01:36:10.676Z,31.0362
2023-04-09T01:37:14.564Z,31.0347
2023-04-09T01:38:18.471Z,31.0397
2023-04-09T01:39:22.604Z,31.0233
2023-04-09T01:40:26.508Z,31.0473
2023-04-09T01:41:30.728Z,31.0235
2023-04-09T01:42:34.617Z,31.0426
2023-04-09T01:43:38.506Z,31.0038
2023-04-09T01:44:42.419Z,30.9910
2023-04-09T01:45:46.327Z,31.0254
2023-04-09T01:46:50.299Z,31.0605
2023-04-09T01:47:54.241Z,31.0532
2023-04-09T01:48:58.361Z,31.0234
2023-04-09T01:50:02.317Z,31.0486
2023-04-09T01:51:06.287Z,31.0418
2023-04-09T01:52:10.192Z,31.0028
2023-04-09T01:53:14.090Z,31.0139
2023-04-09T01:54:17.983Z,30.9928
2023-04-09T01:55:21.885Z,31.0129
2023-04-09T01:56:25.982Z,31.0282
2023-04-09T01:57:29.876Z,31.0308
2023-04-09T01:58:33.781Z,30.9992
2023-04-09T01:59:37.965Z,30.9775
2023-04-09T02:00:41.859Z,30.9555
2023-04-09T02:01:45.833Z,30.9677
2023-04-09T02:02:49.858Z,30.9564
2023-04-09T02:03:53.877Z,30.9551
2023-04-09T02:04:57.777Z,30.9767
2023-04-09T02:05:58.126Z,30.9625
2023-04-09T02:07:02.012Z,30.9673
2023-04-09T02:08:05.913Z,30.9850
2023-04-09T02:09:09.997Z,30.9579
2023-04-09T02:11:18.988Z,30.9884
2023-04-09T02:12:22.866Z,31.0060
2023-04-09T02:13:26.771Z,30.9973
2023-04-09T02:14:30.668Z,31.0317
2023-04-09T02:15:34.585Z,31.0376
2023-04-09T02:16:38.747Z,31.0036
2023-04-09T02:17:42.656Z,31.0256
2023-04-09T02:18:46.779Z,31.0043
2023-04-09T02:19:50.650Z,31.0135
2023-04-09T02:20:54.545Z,31.0500
2023-04-09T02:21:58.437Z,31.0476
2023-04-09T02:23:02.345Z,31.0326
2023-04-09T02:24:06.259Z,31.0352
2023-04-09T02:25:10.172Z,31.0268
2023-04-09T02:26:14.051Z,30.9640
2023-04-09T02:27:18.007Z,30.9325
2023-04-09T02:28:21.874Z,30.9455
2023-04-09T02:29:25.797Z,30.9485
2023-04-09T02:30:29.664Z,30.9601
2023-04-09T02:31:33.866Z,30.9836
2023-04-09T02:32:37.831Z,30.9610
2023-04-09T02:33:41.703Z,31.0071
2023-04-09T02:34:45.601Z,31.0174
2023-04-09T02:35:49.546Z,31.0307
2023-04-09T02:36:53.404Z,31.0017
2023-04-09T02:37:57.318Z,30.9849
2023-04-09T02:39:01.438Z,31.0033
2023-04-09T02:40:05.373Z,31.0277
2023-04-09T02:41:09.257Z,31.0262
2023-04-09T02:42:13.357Z,30.9813
2023-04-09T02:43:17.273Z,30.9821
2023-04-09T02:44:21.146Z,30.9553
2023-04-09T02:45:25.062Z,30.9481
2023-04-09T02:46:29.013Z,30.9494
2023-04-09T02:47:32.968Z,30.9806
2023-04-09T02:48:36.839Z,30.9864
2023-04-09T02:49:40.742Z,30.9513
2023-04-09T02:50:44.664Z,30.8989
2023-04-09T02:51:48.623Z,30.8971
2023-04-09T02:52:52.531Z,30.9456
2023-04-09T02:53:56.732Z,30.9194
2023-04-09T02:55:00.644Z,30.8743
2023-04-09T02:56:04.525Z,30.8525
2023-04-09T02:57:08.437Z,30.8451
2023-04-09T02:58:12.312Z,30.8370
2023-04-09T02:59:16.222Z,30.8628
2023-04-09T03:00:20.117Z,30.8500
2023-04-09T03:01:24.035Z,30.8353
2023-04-09T03:02:28.091Z,30.8328
2023-04-09T03:03:32.098Z,30.8345
2023-04-09T03:04:36.033Z,30.8553
2023-04-09T03:05:39.937Z,30.8392
2023-04-09T03:06:44.053Z,30.8271
2023-04-09T03:07:47.959Z,30.8294
2023-04-09T03:08:52.281Z,30.8100
2023-04-09T03:09:56.306Z,30.8193
2023-04-09T03:11:00.184Z,30.7968
2023-04-09T03:12:04.090Z,30.8779
2023-04-09T03:13:07.982Z,30.8959
2023-04-09T03:14:11.879Z,30.8857
2023-04-09T03:15:15.785Z,30.8870
2023-04-09T03:16:19.724Z,30.8818
2023-04-09T03:17:23.593Z,30.9076
2023-04-09T03:18:27.509Z,30.9193
2023-04-09T03:19:31.395Z,30.9372
2023-04-09T03:20:35.291Z,30.9497
2023-04-09T03:21:39.184Z,30.9141
2023-04-09T03:22:43.089Z,30.8973
2023-04-09T03:23:46.974Z,30.8762
2023-04-09T03:24:50.874Z,30.8511
2023-04-09T03:25:54.774Z,30.8385
2023-04-09T03:26:58.887Z,30.8814
2023-04-09T03:28:02.830Z,30.8688
2023-04-09T03:29:06.690Z,30.8818
2023-04-09T03:30:10.595Z,30.8772
2023-04-09T03:31:14.554Z,30.8816
2023-04-09T03:32:19.174Z,30.8441
2023-04-09T03:33:23.053Z,30.8308
2023-04-09T03:34:26.963Z,30.8236
2023-04-09T03:35:30.884Z,30.8014
2023-04-09T03:36:34.777Z,30.8093
2023-04-09T03:37:38.660Z,30.7727
2023-04-09T03:38:42.576Z,30.7711
2023-04-09T03:39:46.693Z,30.7761
2023-04-09T03:40:50.606Z,30.7631
2023-04-09T03:41:54.710Z,30.7322
2023-04-09T03:42:58.632Z,30.7474
2023-04-09T03:44:02.529Z,30.7285
2023-04-09T03:45:06.424Z,30.7078
2023-04-09T03:46:10.327Z,30.6872
2023-04-09T03:47:14.442Z,30.7028
2023-04-09T03:48:18.342Z,30.7045
2023-04-09T03:49:22.472Z,30.7110
2023-04-09T03:50:26.354Z,30.6998
2023-04-09T03:51:30.265Z,30.7017
2023-04-09T03:52:34.153Z,30.6835
2023-04-09T03:53:38.087Z,30.6839
2023-04-09T03:54:42.291Z,30.6559
2023-04-09T03:55:46.198Z,30.6260
2023-04-09T03:56:50.342Z,30.6310
2023-04-09T03:57:54.247Z,30.6423
2023-04-09T03:58:58.174Z,30.6595
2023-04-09T04:00:02.073Z,30.6625
2023-04-09T04:01:05.954Z,30.6544
2023-04-09T04:02:09.934Z,30.6519
2023-04-09T04:03:13.984Z,30.6419
2023-04-09T04:04:20.468Z,30.6836
2023-04-09T04:05:20.558Z,30.6893
2023-04-09T04:06:24.468Z,30.6643
2023-04-09T04:07:28.363Z,30.6409
2023-04-09T04:08:32.280Z,30.6278
2023-04-09T04:09:36.176Z,30.6341
2023-04-09T04:10:40.084Z,30.6112
2023-04-09T04:11:43.973Z,30.6089
2023-04-09T04:12:47.942Z,30.5976
2023-04-09T04:13:51.820Z,30.5575
2023-04-09T04:14:55.739Z,30.5560
2023-04-09T04:15:59.664Z,30.5192
2023-04-09T04:17:03.761Z,30.4657
2023-04-09T04:18:07.648Z,30.4208
2023-04-09T04:19:11.874Z,30.3988
2023-04-09T04:20:15.752Z,30.3413
2023-04-09T04:21:19.657Z,30.2559
2023-04-09T04:22:26.112Z,30.1436
2023-04-09T04:23:24.909Z,30.0120
2023-04-09T04:24:28.799Z,29.9685
2023-04-09T04:25:32.712Z,29.9239
2023-04-09T04:26:36.612Z,29.8971
2023-04-09T04:27:40.525Z,29.8907
2023-04-09T04:28:44.420Z,29.8552
2023-04-09T04:29:44.515Z,29.7863
2023-04-09T04:30:48.406Z,29.7222
2023-04-09T04:31:52.347Z,29.7220
2023-04-09T04:32:56.240Z,29.7068
2023-04-09T04:34:00.195Z,29.6769
2023-04-09T04:35:04.271Z,29.6563
2023-04-09T04:36:08.166Z,29.6660
2023-04-09T04:37:12.292Z,29.6502
2023-04-09T04:38:16.181Z,29.6844
2023-04-09T04:39:20.095Z,29.6827
2023-04-09T04:40:23.960Z,29.7010
2023-04-09T04:41:27.869Z,29.7417
2023-04-09T04:42:31.961Z,29.7310
2023-04-09T04:43:35.867Z,29.7087
2023-04-09T04:44:39.979Z,29.7470
2023-04-09T04:45:43.926Z,29.7661
2023-04-09T04:46:47.799Z,29.7817
2023-04-09T04:47:51.716Z,29.7813
2023-04-09T04:48:55.587Z,29.7993
2023-04-09T04:49:59.501Z,29.7806
2023-04-09T04:51:03.373Z,29.7872
2023-04-09T04:52:07.614Z,29.7994
2023-04-09T04:53:11.499Z,29.7787
2023-04-09T04:54:15.399Z,29.7866
2023-04-09T04:55:19.289Z,29.7474
2023-04-09T04:56:23.194Z,29.7625
2023-04-09T04:57:27.085Z,29.7880
2023-04-09T04:58:31.005Z,29.8060
2023-04-09T04:59:35.111Z,29.8185
2023-04-09T05:00:39.020Z,29.8172
2023-04-09T05:01:43.015Z,29.8486
2023-04-09T05:02:47.263Z,29.8333
2023-04-09T05:03:51.216Z,29.8300
2023-04-09T05:04:55.192Z,29.8480
2023-04-09T05:05:59.078Z,29.8381
2023-04-09T05:07:02.958Z,29.8645
2023-04-09T05:08:06.872Z,29.8712
2023-04-09T05:09:10.765Z,29.8648
2023-04-09T05:10:14.660Z,29.8800
2023-04-09T05:11:18.536Z,29.8833
2023-04-09T05:12:22.690Z,29.8503
2023-04-09T05:13:26.572Z,29.8906
2023-04-09T05:14:30.484Z,29.8246
2023-04-09T05:15:34.361Z,29.8346
2023-04-09T05:16:38.291Z,29.7820
2023-04-09T05:17:42.203Z,29.7888
2023-04-09T05:18:46.106Z,29.7578
2023-04-09T05:19:49.999Z,29.7616
2023-04-09T05:20:53.912Z,29.7557
2023-04-09T05:21:58.004Z,29.7691
2023-04-09T05:23:01.930Z,29.7231
2023-04-09T05:24:05.818Z,29.7165
2023-04-09T05:25:09.701Z,29.7061
2023-04-09T05:26:13.590Z,29.6834
2023-04-09T05:27:17.502Z,29.6387
2023-04-09T05:28:21.401Z,29.6247
2023-04-09T05:29:26.890Z,29.6027
2023-04-09T05:30:30.800Z,29.5639
2023-04-09T05:31:34.681Z,29.5708
2023-04-09T05:32:38.629Z,29.5319
2023-04-09T05:33:42.487Z,29.5343
2023-04-09T05:34:46.395Z,29.5242
2023-04-09T05:35:50.301Z,29.5055
2023-04-09T05:36:54.208Z,29.4992
2023-04-09T05:37:58.293Z,29.4781
2023-04-09T05:39:02.196Z,29.4460
2023-04-09T05:40:06.414Z,29.4168
2023-04-09T05:41:10.314Z,29.3889
2023-04-09T05:42:14.235Z,29.3666
2023-04-09T05:43:18.105Z,29.3524
2023-04-09T05:44:22.007Z,29.2936
2023-04-09T05:45:25.901Z,29.2692
2023-04-09T05:46:29.911Z,29.2723
2023-04-09T05:47:33.886Z,29.2273
2023-04-09T05:48:37.772Z,29.2221
2023-04-09T05:49:41.640Z,29.1957
2023-04-09T05:50:54.475Z,29.2062
2023-04-09T05:51:50.026Z,29.1770
2023-04-09T05:52:53.934Z,29.1472
2023-04-09T05:53:57.820Z,29.1097
2023-04-09T05:55:01.766Z,29.0782
2023-04-09T05:56:05.609Z,29.0780
2023-04-09T05:57:09.760Z,29.0585
2023-04-09T05:58:13.637Z,29.0255
2023-04-09T05:59:17.536Z,28.9977
2023-04-09T06:00:21.637Z,29.0174
2023-04-09T06:01:25.548Z,28.9912
2023-04-09T06:02:29.485Z,28.9743
2023-04-09T06:03:33.470Z,28.9625
2023-04-09T06:04:37.433Z,28.9459
2023-04-09T06:05:41.330Z,28.9218
2023-04-09T06:06:45.205Z,28.9069
2023-04-09T06:07:49.120Z,28.8840
2023-04-09T06:08:53.014Z,28.8979
2023-04-09T06:09:56.910Z,28.8935
2023-04-09T06:11:00.815Z,28.8778
2023-04-09T06:12:04.754Z,28.8570
2023-04-09T06:13:08.600Z,28.8283
2023-04-09T06:14:12.509Z,28.8288
2023-04-09T06:15:16.398Z,28.8298
2023-04-09T06:16:20.335Z,28.8219
2023-04-09T06:17:20.568Z,28.8105
2023-04-09T06:18:24.440Z,28.7760
2023-04-09T06:19:28.345Z,28.7673
2023-04-09T06:20:32.235Z,28.7418
2023-04-09T06:21:36.131Z,28.7286
2023-04-09T06:22:40.012Z,28.7337
2023-04-09T06:23:43.900Z,28.6858
2023-04-09T06:24:48.132Z,28.6907
2023-04-09T06:25:52.056Z,28.6572
2023-04-09T06:26:55.946Z,28.6584
2023-04-09T06:27:59.827Z,28.6355
2023-04-09T06:29:03.695Z,28.6392
2023-04-09T06:30:07.626Z,28.6371
2023-04-09T06:31:11.537Z,28.6058
2023-04-09T06:32:15.624Z,28.6025
2023-04-09T06:33:19.595Z,28.6008
2023-04-09T06:34:23.493Z,28.5479
2023-04-09T06:35:27.399Z,28.5066
2023-04-09T06:36:31.295Z,28.4738
2023-04-09T06:37:35.192Z,28.4604
2023-04-09T06:38:39.086Z,28.4472
2023-04-09T06:39:50.553Z,28.4564
2023-04-09T06:40:47.480Z,28.4257
2023-04-09T06:41:51.373Z,28.4740
2023-04-09T06:42:55.262Z,28.4643
2023-04-09T06:43:59.145Z,28.5463
2023-04-09T06:45:03.060Z,28.5837
2023-04-09T06:46:06.958Z,28.6105
2023-04-09T06:47:10.850Z,28.6261
2023-04-09T06:48:14.951Z,28.6690
2023-04-09T06:49:18.848Z,28.7019
2023-04-09T06:50:22.978Z,28.6710
2023-04-09T06:51:26.862Z,28.7329
2023-04-09T06:52:30.775Z,28.7502
2023-04-09T06:53:34.743Z,28.7426
2023-04-09T06:54:38.594Z,28.7556
2023-04-09T06:55:42.486Z,28.7525
2023-04-09T06:56:46.380Z,28.7674
2023-04-09T06:57:50.583Z,28.7865
2023-04-09T06:58:54.489Z,28.7786
2023-04-09T06:59:58.374Z,28.7360
2023-04-09T07:01:02.298Z,28.7225
2023-04-09T07:02:06.285Z,28.7436
2023-04-09T07:03:10.253Z,28.7801
2023-04-09T07:04:14.201Z,28.7748
2023-04-09T07:05:18.323Z,28.7729
2023-04-09T07:06:22.198Z,28.7577
2023-04-09T07:07:26.315Z,28.7724
2023-04-09T07:08:30.229Z,28.7632
2023-04-09T07:09:34.131Z,28.7197
2023-04-09T07:10:38.015Z,28.6775
2023-04-09T07:11:41.894Z,28.6382
2023-04-09T07:12:45.809Z,28.6153
2023-04-09T07:13:49.692Z,28.5931
2023-04-09T07:14:53.591Z,28.5655
2023-04-09T07:15:57.508Z,28.5479
2023-04-09T07:17:01.428Z,28.4804
2023-04-09T07:18:05.309Z,28.4915
2023-04-09T07:19:09.217Z,28.4437
2023-04-09T07:20:13.314Z,28.4185
2023-04-09T07:21:17.236Z,28.4139
2023-04-09T07:22:21.114Z,28.4477
2023-04-09T07:23:25.021Z,28.4369
2023-04-09T07:24:28.905Z,28.4297
2023-04-09T07:25:32.858Z,28.4761
2023-04-09T07:26:36.706Z,28.5328
2023-04-09T07:27:40.616Z,28.5385
2023-04-09T07:28:44.503Z,28.5315
2023-04-09T07:29:48.429Z,28.5378
2023-04-09T07:30:52.316Z,28.5160
2023-04-09T07:31:56.244Z,28.4776
2023-04-09T07:33:00.520Z,28.4857
2023-04-09T07:34:04.423Z,28.4785
2023-04-09T07:35:08.307Z,28.4904
2023-04-09T07:36:12.463Z,28.4829
2023-04-09T07:37:16.379Z,28.4527
2023-04-09T07:38:20.281Z,28.4482
2023-04-09T07:39:24.174Z,28.4588
2023-04-09T07:40:24.685Z,28.4582
2023-04-09T07:41:28.590Z,28.4723
2023-04-09T07:42:32.698Z,28.4748
2023-04-09T07:43:36.589Z,28.4529
2023-04-09T07:44:40.500Z,28.3735
2023-04-09T07:45:44.411Z,28.3690
2023-04-09T07:46:48.346Z,28.3858
2023-04-09T07:47:52.251Z,28.3989
2023-04-09T07:48:56.137Z,28.3774
2023-04-09T07:50:00.060Z,28.3356
2023-04-09T07:51:04.170Z,28.2856
2023-04-09T07:52:08.083Z,28.2121
2023-04-09T07:53:11.964Z,28.1837
2023-04-09T07:54:15.862Z,28.1584
2023-04-09T07:55:20.022Z,28.1277
2023-04-09T07:56:23.935Z,28.1193
2023-04-09T07:57:27.821Z,28.0636
2023-04-09T07:58:31.714Z,28.0374
2023-04-09T07:59:35.608Z,28.0403
2023-04-09T08:00:36.050Z,28.0896
2023-04-09T08:01:39.968Z,28.0768
2023-04-09T08:02:43.970Z,28.0415
2023-04-09T08:03:48.102Z,27.9790
2023-04-09T08:04:52.109Z,27.9663
2023-04-09T08:05:52.612Z,27.9680
2023-04-09T08:06:56.505Z,27.9812
2023-04-09T08:08:00.425Z,27.9980
2023-04-09T08:09:04.308Z,27.9716
2023-04-09T08:10:08.206Z,28.0301
2023-04-09T08:11:12.102Z,28.0374
2023-04-09T08:12:16.025Z,27.9957
2023-04-09T08:13:19.901Z,27.9689
2023-04-09T08:14:23.807Z,27.9662
2023-04-09T08:15:27.775Z,27.9675
2023-04-09T08:16:31.662Z,27.9518
2023-04-09T08:17:35.540Z,27.9282
2023-04-09T08:18:39.632Z,27.9381
2023-04-09T08:19:43.534Z,27.9078
2023-04-09T08:20:47.647Z,27.8854
2023-04-09T08:21:51.554Z,27.8707
2023-04-09T08:22:55.443Z,27.8737
2023-04-09T08:23:59.358Z,27.8563
2023-04-09T08:25:03.250Z,27.8468
2023-04-09T08:26:07.136Z,27.8779
2023-04-09T08:27:11.036Z,27.9219
2023-04-09T08:28:14.966Z,27.9376
2023-04-09T08:29:18.834Z,27.9077
2023-04-09T08:30:22.782Z,27.8901
2023-04-09T08:31:26.681Z,27.8918
2023-04-09T08:32:30.628Z,27.8915
2023-04-09T08:33:34.498Z,27.9268
2023-04-09T08:34:38.410Z,27.8947
2023-04-09T08:35:42.299Z,27.9051
2023-04-09T08:36:46.249Z,27.9171
2023-04-09T08:37:50.100Z,27.9372
2023-04-09T08:38:54.099Z,27.9140
2023-04-09T08:39:58.122Z,27.9376
2023-04-09T08:41:02.044Z,27.9376
2023-04-09T08:42:05.939Z,28.0589
2023-04-09T08:43:10.067Z,28.0829
2023-04-09T08:44:13.961Z,28.0523
2023-04-09T08:45:17.874Z,28.0767
2023-04-09T08:46:21.779Z,28.0852
2023-04-09T08:47:25.717Z,28.0815
2023-04-09T08:48:29.683Z,28.0426
2023-04-09T08:49:33.576Z,28.0543
2023-04-09T08:50:37.806Z,28.0239
2023-04-09T08:51:41.696Z,28.0062
2023-04-09T08:52:45.600Z,27.9863
2023-04-09T08:53:49.721Z,27.9891
2023-04-09T08:54:53.650Z,28.0187
2023-04-09T08:55:57.550Z,28.0234
2023-04-09T08:57:01.466Z,28.0409
2023-04-09T08:58:05.356Z,28.0441
2023-04-09T08:59:09.260Z,28.0895
2023-04-09T09:00:13.148Z,28.1448
2023-04-09T09:01:17.084Z,28.2082
2023-04-09T09:02:21.035Z,28.2131
2023-04-09T09:03:25.040Z,28.1826
2023-04-09T09:04:29.025Z,28.2045
2023-04-09T09:05:32.940Z,28.2342
2023-04-09T09:06:36.843Z,28.2352
2023-04-09T09:07:40.736Z,28.2572
2023-04-09T09:08:44.629Z,28.3079
2023-04-09T09:09:48.529Z,28.3262
2023-04-09T09:10:52.428Z,28.4424
2023-04-09T09:11:56.336Z,28.5080
2023-04-09T09:13:00.282Z,28.5666
2023-04-09T09:14:04.195Z,28.5447
2023-04-09T09:15:08.093Z,28.5297
2023-04-09T09:16:12.053Z,28.6073
2023-04-09T09:17:15.947Z,28.6695
2023-04-09T09:18:19.850Z,28.6980
2023-04-09T09:19:23.751Z,28.7202
2023-04-09T09:20:27.803Z,28.7048
2023-04-09T09:21:31.758Z,28.7231
2023-04-09T09:22:35.644Z,28.7078
2023-04-09T09:23:39.553Z,28.7169
2023-04-09T09:24:43.450Z,28.7211
2023-04-09T09:25:47.366Z,28.7535
2023-04-09T09:26:51.270Z,28.7167
2023-04-09T09:27:55.422Z,28.6617
2023-04-09T09:28:59.328Z,28.8022
2023-04-09T09:30:03.208Z,28.9220
2023-04-09T09:31:07.119Z,28.8865
2023-04-09T09:32:10.991Z,28.8653
2023-04-09T09:33:14.895Z,28.9140
2023-04-09T09:34:18.821Z,28.8853
2023-04-09T09:35:22.782Z,28.8766
2023-04-09T09:36:26.663Z,28.8544
2023-04-09T09:37:30.562Z,28.8275
2023-04-09T09:38:34.441Z,28.8077
2023-04-09T09:39:38.352Z,28.8228
2023-04-09T09:40:42.240Z,28.8247
2023-04-09T09:41:46.148Z,28.8289
2023-04-09T09:42:50.047Z,28.8214
2023-04-09T09:43:53.946Z,28.8233
2023-04-09T09:44:57.834Z,28.8124
2023-04-09T09:46:02.002Z,28.8218
2023-04-09T09:47:05.931Z,28.8123
2023-04-09T09:48:10.133Z,28.8442
2023-04-09T09:49:14.021Z,28.8415
2023-04-09T09:50:18.017Z,28.8579
2023-04-09T09:51:22.024Z,28.8396
2023-04-09T09:52:26.733Z,28.8326
2023-04-09T09:53:30.647Z,28.8040
2023-04-09T09:54:34.546Z,28.7982
2023-04-09T09:55:38.455Z,28.7647
2023-04-09T09:56:42.365Z,28.7398
2023-04-09T09:57:46.284Z,28.7521
2023-04-09T09:58:50.651Z,28.7287
2023-04-09T09:59:54.688Z,28.7244
2023-04-09T10:00:58.632Z,28.7384
2023-04-09T10:02:02.572Z,28.7104
2023-04-09T10:03:06.869Z,28.6929
2023-04-09T10:04:10.814Z,28.6830
2023-04-09T10:05:14.681Z,28.6797
2023-04-09T10:06:18.577Z,28.6661
2023-04-09T10:07:22.501Z,28.6798
2023-04-09T10:08:26.463Z,28.6724
2023-04-09T10:09:30.401Z,28.6467
2023-04-09T10:10:34.296Z,28.6287
2023-04-09T10:11:38.204Z,28.6269
2023-04-09T10:12:42.116Z,28.5974
2023-04-09T10:13:46.001Z,28.5591
2023-04-09T10:14:49.906Z,28.5692
2023-04-09T10:15:53.897Z,28.5765
2023-04-09T10:16:57.794Z,28.5779
2023-04-09T10:18:01.704Z,28.5299
2023-04-09T10:19:05.593Z,28.4827
2023-04-09T10:20:09.482Z,28.4627
2023-04-09T10:21:13.379Z,28.4668
2023-04-09T10:22:17.261Z,28.4547
2023-04-09T10:23:21.168Z,28.4772
2023-04-09T10:24:25.061Z,28.4849
2023-04-09T10:25:28.961Z,28.4573
2023-04-09T10:26:32.860Z,28.4236
2023-04-09T10:27:36.758Z,28.4259
2023-04-09T10:28:40.655Z,28.4082
2023-04-09T10:29:44.555Z,28.3754
2023-04-09T10:30:48.688Z,28.3721
2023-04-09T10:31:52.574Z,28.3887
2023-04-09T10:32:56.536Z,28.3758
2023-04-09T10:34:00.394Z,28.4145
2023-04-09T10:35:04.326Z,28.3843
2023-04-09T10:36:08.194Z,28.3885
2023-04-09T10:37:12.093Z,28.3571
2023-04-09T10:38:16.013Z,28.3396
2023-04-09T10:39:19.897Z,28.2790
2023-04-09T10:40:23.776Z,28.2481
2023-04-09T10:41:27.718Z,28.2173
2023-04-09T10:42:31.583Z,28.2197
2023-04-09T10:43:35.497Z,28.2019
2023-04-09T10:44:39.378Z,28.1522
2023-04-09T10:45:43.285Z,28.1352
2023-04-09T10:46:47.221Z,28.0568
2023-04-09T10:47:51.169Z,28.0061
2023-04-09T10:48:55.020Z,28.0137
2023-04-09T10:49:58.928Z,28.0031
2023-04-09T10:51:02.817Z,28.0437
2023-04-09T10:52:07.123Z,28.0665
2023-04-09T10:53:07.159Z,28.0058
2023-04-09T10:54:11.084Z,27.9467
2023-04-09T10:55:14.972Z,27.8842
2023-04-09T10:56:18.877Z,27.7894
2023-04-09T10:57:22.762Z,27.7348
2023-04-09T10:58:26.657Z,27.7597
2023-04-09T10:59:30.549Z,27.7285
2023-04-09T11:00:34.463Z,27.6848
2023-04-09T11:01:38.467Z,27.6596
2023-04-09T11:02:42.572Z,27.6301
2023-04-09T11:03:46.552Z,27.6201
2023-04-09T11:04:50.477Z,27.5965
2023-04-09T11:05:54.353Z,27.5889
2023-04-09T11:06:58.233Z,27.5519
2023-04-09T11:08:02.128Z,27.5267
2023-04-09T11:09:02.539Z,27.5277
2023-04-09T11:10:06.452Z,27.4661
2023-04-09T11:11:10.336Z,27.4521
2023-04-09T11:12:14.248Z,27.4161
2023-04-09T11:13:14.458Z,27.3661
2023-04-09T11:14:18.366Z,27.3745
2023-04-09T11:15:22.253Z,27.3871
2023-04-09T11:16:27.883Z,27.3973
2023-04-09T11:17:27.582Z,27.3766
2023-04-09T11:18:27.907Z,27.3719
2023-04-09T11:19:31.787Z,27.3624
2023-04-09T11:20:35.725Z,27.3239
2023-04-09T11:21:39.578Z,27.2839
2023-04-09T11:22:43.488Z,27.2040
2023-04-09T11:23:47.597Z,27.1520
2023-04-09T11:24:51.508Z,27.1231
2023-04-09T11:25:55.614Z,27.0852
2023-04-09T11:26:59.516Z,27.0337
2023-04-09T11:28:03.406Z,26.9422
2023-04-09T11:29:07.305Z,26.8963
2023-04-09T11:30:11.243Z,26.8420
2023-04-09T11:31:15.151Z,26.7806
2023-04-09T11:32:19.000Z,26.7437
2023-04-09T11:33:23.139Z,26.7230
2023-04-09T11:34:27.021Z,26.6961
2023-04-09T11:35:30.984Z,26.6731
2023-04-09T11:36:35.088Z,26.6635
2023-04-09T11:37:38.988Z,26.6342
2023-04-09T11:38:42.881Z,26.5514
2023-04-09T11:39:46.779Z,26.5069
2023-04-09T11:40:50.901Z,26.5329
2023-04-09T11:41:54.821Z,26.5062
2023-04-09T11:42:58.686Z,26.4591
2023-04-09T11:44:02.577Z,26.4108
2023-04-09T11:45:06.496Z,26.3508
2023-04-09T11:46:10.377Z,26.2385
2023-04-09T11:47:14.285Z,26.1622
2023-04-09T11:48:18.228Z,26.0690
2023-04-09T11:49:22.152Z,26.0464
2023-04-09T11:50:26.025Z,25.9956
2023-04-09T11:51:29.928Z,25.9583
2023-04-09T11:52:33.813Z,25.9117
2023-04-09T11:53:37.726Z,25.8981
2023-04-09T11:54:41.624Z,25.8962
2023-04-09T11:55:45.618Z,25.8897
2023-04-09T11:56:49.764Z,25.8221
2023-04-09T11:57:53.679Z,25.7365
2023-04-09T11:58:57.575Z,25.7147
2023-04-09T12:00:03.806Z,25.6613
2023-04-09T12:01:03.897Z,25.6460
2023-04-09T12:02:07.885Z,25.5402
2023-04-09T12:03:12.135Z,25.5075
2023-04-09T12:04:16.587Z,25.4533
2023-04-09T12:05:20.549Z,25.4270
2023-04-09T12:06:24.558Z,25.4122
2023-04-09T12:07:28.437Z,25.4234
2023-04-09T12:08:32.560Z,25.4553
2023-04-09T12:09:36.469Z,25.4292
2023-04-09T12:10:40.339Z,25.4124
2023-04-09T12:11:44.220Z,25.3760
2023-04-09T12:12:48.144Z,25.3227
2023-04-09T12:13:52.033Z,25.3009
2023-04-09T12:14:55.920Z,25.2884
2023-04-09T12:16:00.050Z,25.2619
2023-04-09T12:17:03.967Z,25.2668
2023-04-09T12:18:07.932Z,25.2382
2023-04-09T12:19:12.044Z,25.1644
2023-04-09T12:20:15.954Z,25.2364
2023-04-09T12:21:19.836Z,25.3389
2023-04-09T12:22:23.742Z,25.3585
2023-04-09T12:23:27.641Z,25.3137
2023-04-09T12:24:31.546Z,25.3114
2023-04-09T12:25:35.460Z,25.3236
2023-04-09T12:26:39.338Z,25.3362
2023-04-09T12:27:43.223Z,25.3366
2023-04-09T12:28:47.137Z,25.3071
2023-04-09T12:29:51.019Z,25.2898
2023-04-09T12:30:54.920Z,25.2504
2023-04-09T12:31:58.817Z,25.2340
2023-04-09T12:33:02.735Z,25.2148
2023-04-09T12:34:06.627Z,25.2528
2023-04-09T12:35:10.508Z,25.2963
2023-04-09T12:36:14.436Z,25.2937
2023-04-09T12:37:18.295Z,25.2144
2023-04-09T12:38:22.201Z,25.2525
2023-04-09T12:39:26.106Z,25.1853
2023-04-09T12:40:30.091Z,25.1204
2023-04-09T12:41:34.399Z,25.0259
2023-04-09T12:42:38.314Z,25.0015
2023-04-09T12:43:43.943Z,24.9170
2023-04-09T12:44:42.585Z,24.8704
2023-04-09T12:45:46.483Z,24.8720
2023-04-09T12:46:50.386Z,24.8377
2023-04-09T12:47:54.278Z,24.8177
2023-04-09T12:48:58.359Z,24.8638
2023-04-09T12:50:02.284Z,24.7536
2023-04-09T12:51:06.147Z,24.6544
2023-04-09T12:52:10.055Z,24.6349
2023-04-09T12:53:13.943Z,24.6438